createdAt,value
2023-03-23T15:58:54.612Z,37.80
2023-03-23T16:01:26.588Z,35.50
2023-03-23T16:04:12.685Z,39.00
2023-03-23T16:06:43.032Z,35.90
2023-03-23T16:09:19.368Z,28.40
2023-03-23T16:11:50.467Z,28.10
2023-03-23T16:14:19.405Z,27.30
2023-03-23T16:16:50.962Z,32.30
2023-03-23T16:19:24.514Z,27.50
2023-03-23T16:21:53.915Z,18.90
2023-03-23T16:24:24.854Z,15.40
2023-03-23T16:26:53.471Z,14.00
2023-03-23T16:29:40.626Z,14.80
2023-03-23T16:32:14.803Z,16.50
2023-03-23T16:34:43.105Z,17.60
2023-03-23T16:37:12.246Z,23.40
2023-03-23T16:39:42.450Z,27.70
2023-03-23T16:42:10.948Z,31.90
2023-03-23T16:44:41.483Z,31.70
2023-03-23T16:47:10.229Z,27.20
2023-03-23T16:49:38.500Z,23.00
2023-03-23T16:52:07.166Z,20.60
2023-03-23T16:54:35.709Z,20.40
2023-03-23T16:57:05.726Z,18.40
2023-03-23T16:59:33.986Z,18.90
2023-03-23T17:02:04.085Z,17.10
2023-03-23T17:04:34.924Z,15.60
2023-03-23T17:07:03.995Z,13.20
2023-03-23T17:09:32.359Z,12.50
2023-03-23T17:12:02.761Z,12.50
2023-03-23T17:14:31.225Z,12.90
2023-03-23T17:17:10.140Z,14.00
2023-03-23T17:19:39.683Z,14.10
2023-03-23T17:22:08.116Z,16.80
2023-03-23T17:24:41.385Z,16.60
2023-03-23T17:27:10.453Z,18.70
2023-03-23T17:29:39.172Z,22.10
2023-03-23T17:32:07.676Z,24.70
2023-03-23T17:34:36.109Z,25.80
2023-03-23T17:37:07.190Z,27.40
2023-03-23T17:39:42.598Z,29.90
2023-03-23T17:42:12.013Z,29.10
2023-03-23T17:44:42.005Z,28.80
2023-03-23T17:47:11.216Z,30.20
2023-03-23T17:49:40.116Z,27.80
2023-03-23T17:52:08.936Z,27.60
2023-03-23T17:54:37.176Z,27.40
2023-03-23T17:57:06.934Z,27.30
2023-03-23T17:59:35.853Z,27.10
2023-03-23T18:02:04.226Z,27.20
2023-03-23T18:04:32.920Z,27.10
2023-03-23T18:07:01.279Z,26.60
2023-03-23T18:09:29.975Z,26.30
2023-03-23T18:11:58.553Z,26.50
2023-03-23T18:14:27.058Z,26.10
2023-03-23T18:16:58.197Z,26.50
2023-03-23T18:19:26.827Z,27.50
2023-03-23T18:21:55.545Z,27.50
2023-03-23T18:24:24.121Z,31.60
2023-03-23T18:26:52.349Z,29.90
2023-03-23T18:29:20.718Z,28.70
2023-03-23T18:31:49.884Z,29.20
2023-03-23T18:34:18.457Z,30.30
2023-03-23T18:36:47.453Z,33.00
2023-03-23T18:39:15.829Z,32.30
2023-03-23T18:41:44.637Z,31.10
2023-03-23T18:44:13.018Z,36.80
2023-03-23T18:46:42.239Z,50.40
2023-03-23T18:49:10.649Z,46.30
2023-03-23T18:51:39.116Z,34.50
2023-03-23T18:54:08.833Z,30.70
2023-03-23T18:56:38.367Z,27.20
2023-03-23T18:59:08.022Z,28.40
2023-03-23T19:01:36.763Z,27.30
2023-03-23T19:04:07.207Z,28.70
2023-03-23T19:06:36.208Z,29.80
2023-03-23T19:09:04.963Z,32.70
2023-03-23T19:11:38.747Z,33.30
2023-03-23T19:14:07.360Z,35.30
2023-03-23T19:16:36.791Z,35.90
2023-03-23T19:19:13.045Z,34.80
2023-03-23T19:21:43.791Z,34.90
2023-03-23T19:24:14.355Z,35.50
2023-03-23T19:26:44.265Z,34.40
2023-03-23T19:31:53.557Z,34.60
2023-03-23T19:34:22.188Z,33.70
2023-03-23T19:36:55.171Z,32.10
2023-03-23T19:39:32.834Z,33.70
2023-03-23T19:42:01.373Z,31.60
2023-03-23T19:44:29.727Z,30.30
2023-03-23T19:46:58.985Z,30.40
2023-03-23T19:49:27.582Z,30.70
2023-03-23T19:52:09.035Z,30.00
2023-03-23T19:54:39.464Z,28.70
2023-03-23T19:57:10.241Z,28.50
2023-03-23T19:59:39.232Z,31.30
2023-03-23T20:02:08.269Z,33.30
2023-03-23T20:04:40.077Z,36.20
2023-03-23T20:07:09.946Z,34.60
2023-03-23T20:09:38.964Z,35.90
2023-03-23T20:12:12.961Z,34.50
2023-03-23T20:14:45.407Z,31.90
2023-03-23T20:17:14.830Z,30.30
2023-03-23T20:19:45.681Z,28.50
2023-03-23T20:22:14.796Z,29.30
2023-03-23T20:24:48.282Z,29.50
2023-03-23T20:27:17.726Z,29.40
2023-03-23T20:29:46.552Z,28.70
2023-03-23T20:32:17.747Z,29.20
2023-03-23T20:34:49.933Z,30.00
2023-03-23T20:37:20.943Z,29.90
2023-03-23T20:39:51.429Z,31.30
2023-03-23T20:42:19.855Z,30.90
2023-03-23T20:44:48.926Z,32.00
2023-03-23T20:47:18.008Z,32.90
2023-03-23T20:49:52.660Z,33.90
2023-03-23T20:52:23.595Z,32.40
2023-03-23T20:54:55.123Z,33.60
2023-03-23T20:57:23.404Z,33.90
2023-03-23T20:59:53.522Z,33.20
2023-03-23T21:02:22.369Z,33.00
2023-03-23T21:04:53.197Z,33.60
2023-03-23T21:07:23.940Z,33.40
2023-03-23T21:09:52.585Z,32.60
2023-03-23T21:12:23.495Z,32.80
2023-03-23T21:14:52.391Z,34.00
2023-03-23T21:17:21.156Z,34.00
2023-03-23T21:19:56.945Z,31.70
2023-03-23T21:22:27.470Z,32.80
2023-03-23T21:24:56.020Z,32.60
2023-03-23T21:27:24.250Z,35.40
2023-03-23T21:29:59.397Z,32.70
2023-03-23T21:32:28.589Z,30.70
2023-03-23T21:35:02.795Z,28.60
2023-03-23T21:37:32.196Z,31.20
2023-03-23T21:40:13.646Z,29.90
2023-03-23T21:42:44.822Z,30.40
2023-03-23T21:45:14.401Z,30.40
2023-03-23T21:47:45.012Z,28.40
2023-03-23T21:50:14.446Z,28.10
2023-03-23T21:52:43.370Z,27.40
2023-03-23T21:55:12.582Z,27.00
2023-03-23T21:57:42.323Z,26.50
2023-03-23T22:00:14.970Z,24.70
2023-03-23T22:02:45.829Z,24.30
2023-03-23T22:05:14.102Z,24.60
2023-03-23T22:07:46.456Z,24.40
2023-03-23T22:10:15.689Z,24.10
2023-03-23T22:12:43.997Z,25.10
2023-03-23T22:15:19.077Z,24.00
2023-03-23T22:17:47.702Z,23.70
2023-03-23T22:20:15.970Z,24.00
2023-03-23T22:22:46.496Z,24.80
2023-03-23T22:25:15.307Z,24.20
2023-03-23T22:27:44.864Z,23.00
2023-03-23T22:30:13.603Z,21.50
2023-03-23T22:32:42.304Z,22.70
2023-03-23T22:35:12.806Z,21.60
2023-03-23T22:37:41.923Z,22.00
2023-03-23T22:40:11.707Z,23.00
2023-03-23T22:42:40.828Z,21.00
2023-03-23T22:45:09.789Z,20.80
2023-03-23T22:47:38.902Z,21.30
2023-03-23T22:50:08.471Z,21.50
2023-03-23T22:52:37.513Z,20.30
2023-03-23T22:55:08.478Z,21.30
2023-03-23T22:57:37.864Z,20.10
2023-03-23T23:00:09.011Z,20.50
2023-03-23T23:02:37.723Z,20.30
2023-03-23T23:05:06.161Z,19.80
2023-03-23T23:07:36.408Z,20.30
2023-03-23T23:10:05.483Z,20.30
2023-03-23T23:12:35.494Z,19.50
2023-03-23T23:15:06.026Z,19.10
2023-03-23T23:17:35.031Z,18.60
2023-03-23T23:20:05.710Z,17.20
2023-03-23T23:22:36.712Z,18.50
2023-03-23T23:25:06.622Z,18.60
2023-03-23T23:27:35.674Z,18.30
2023-03-23T23:30:06.996Z,17.70
2023-03-23T23:32:57.638Z,16.60
2023-03-23T23:35:26.271Z,17.10
2023-03-23T23:37:55.802Z,17.30
2023-03-23T23:40:24.014Z,17.20
2023-03-23T23:42:53.851Z,17.00
2023-03-23T23:45:22.601Z,17.30
2023-03-23T23:47:59.500Z,17.30
2023-03-23T23:50:28.095Z,16.90
2023-03-23T23:52:58.703Z,16.80
2023-03-23T23:55:27.202Z,16.40
2023-03-23T23:57:56.189Z,16.80
